createdAt,value
2022-07-28T00:01:06.265Z,25.50
2022-07-28T00:03:33.299Z,25.50
2022-07-28T00:06:00.419Z,25.50
2022-07-28T00:08:27.412Z,25.50
2022-07-28T00:10:54.464Z,25.50
2022-07-28T00:13:22.444Z,25.40
2022-07-28T00:15:49.463Z,25.40
2022-07-28T00:18:16.503Z,25.40
2022-07-28T00:20:43.548Z,25.40
2022-07-28T00:23:10.592Z,25.40
2022-07-28T00:25:37.624Z,25.30
2022-07-28T00:28:04.830Z,25.30
2022-07-28T00:30:31.857Z,25.20
2022-07-28T00:32:59.112Z,25.20
2022-07-28T00:35:30.926Z,25.20
2022-07-28T00:38:00.052Z,25.20
2022-07-28T00:40:47.308Z,25.20
2022-07-28T00:43:14.869Z,25.20
2022-07-28T00:45:42.117Z,25.20
2022-07-28T00:48:09.422Z,25.20
2022-07-28T00:50:40.286Z,25.20
2022-07-28T00:53:08.864Z,25.20
2022-07-28T00:56:05.594Z,25.10
2022-07-28T00:58:27.448Z,25.10
2022-07-28T01:00:55.687Z,25.20
2022-07-28T01:03:23.872Z,25.10
2022-07-28T01:06:12.856Z,25.20
2022-07-28T01:08:51.791Z,25.10
2022-07-28T01:11:30.122Z,25.10
2022-07-28T01:14:16.345Z,25.10
2022-07-28T01:16:49.838Z,25.10
2022-07-28T01:19:48.492Z,25.10
2022-07-28T01:22:23.052Z,25.10
2022-07-28T01:25:16.578Z,25.10
2022-07-28T01:28:08.228Z,25.00
2022-07-28T01:30:48.773Z,25.00
2022-07-28T01:33:25.006Z,25.00
2022-07-28T01:36:01.971Z,25.00
2022-07-28T01:38:31.936Z,25.00
2022-07-28T01:41:01.254Z,25.00
2022-07-28T01:43:31.684Z,25.00
2022-07-28T01:46:00.014Z,24.90
2022-07-28T01:48:28.834Z,24.90
2022-07-28T01:50:57.386Z,24.90
2022-07-28T01:53:26.177Z,24.80
2022-07-28T01:55:54.668Z,24.80
2022-07-28T01:58:24.984Z,24.80
2022-07-28T02:00:55.087Z,24.80
2022-07-28T02:03:24.327Z,24.80
2022-07-28T02:05:54.069Z,24.70
2022-07-28T02:08:23.555Z,24.70
2022-07-28T02:11:12.666Z,24.60
2022-07-28T02:13:42.305Z,24.60
2022-07-28T02:16:11.391Z,24.60
2022-07-28T02:18:40.037Z,24.60
2022-07-28T02:21:08.147Z,24.50
2022-07-28T02:23:35.857Z,24.60
2022-07-28T02:26:08.410Z,24.50
2022-07-28T02:28:36.385Z,24.60
2022-07-28T02:31:10.955Z,24.50
2022-07-28T02:34:00.077Z,24.50
2022-07-28T02:36:41.540Z,24.50
2022-07-28T02:39:17.163Z,24.50
2022-07-28T02:41:44.730Z,24.50
2022-07-28T02:44:25.770Z,24.40
2022-07-28T02:46:55.872Z,24.40
2022-07-28T02:49:33.861Z,24.40
2022-07-28T02:52:03.476Z,24.40
2022-07-28T02:54:32.968Z,24.40
2022-07-28T02:57:00.992Z,24.40
2022-07-28T02:59:29.265Z,24.30
2022-07-28T03:01:57.258Z,24.30
2022-07-28T03:04:43.704Z,24.30
2022-07-28T03:07:11.364Z,24.30
2022-07-28T03:09:45.802Z,24.20
2022-07-28T03:12:13.327Z,24.20
2022-07-28T03:14:40.586Z,24.20
2022-07-28T03:17:08.275Z,24.20
2022-07-28T03:19:35.430Z,24.20
2022-07-28T03:22:02.643Z,24.20
2022-07-28T03:24:43.399Z,24.10
2022-07-28T03:27:31.175Z,24.10
2022-07-28T03:30:04.057Z,24.10
2022-07-28T03:32:34.284Z,24.10
2022-07-28T03:35:01.636Z,24.00
2022-07-28T03:38:10.227Z,24.00
2022-07-28T03:40:38.818Z,24.00
2022-07-28T03:43:08.794Z,24.00
2022-07-28T03:45:36.428Z,24.00
2022-07-28T03:48:08.352Z,23.90
2022-07-28T03:50:35.446Z,23.90
2022-07-28T03:53:05.254Z,23.90
2022-07-28T03:55:32.270Z,23.90
2022-07-28T03:57:59.419Z,23.80
2022-07-28T04:00:26.412Z,23.80
2022-07-28T04:02:53.633Z,23.80
2022-07-28T04:05:20.935Z,23.80
2022-07-28T04:07:48.259Z,23.70
2022-07-28T04:10:17.356Z,23.70
2022-07-28T04:12:53.606Z,23.70
2022-07-28T04:15:22.018Z,23.70
2022-07-28T04:17:50.124Z,23.70
2022-07-28T04:20:18.677Z,23.70
2022-07-28T04:22:47.172Z,23.70
2022-07-28T04:25:15.790Z,23.70
2022-07-28T04:27:44.607Z,23.70
2022-07-28T04:30:17.506Z,23.60
2022-07-28T04:32:46.165Z,23.60
2022-07-28T04:35:17.355Z,23.70
2022-07-28T04:37:45.966Z,23.70
2022-07-28T04:40:13.847Z,23.80
2022-07-28T04:42:41.762Z,23.90
2022-07-28T04:45:11.721Z,23.90
2022-07-28T04:47:39.914Z,24.00
2022-07-28T04:50:09.823Z,24.00
2022-07-28T04:52:38.354Z,24.10
2022-07-28T04:55:06.832Z,24.20
2022-07-28T04:57:34.285Z,24.20
2022-07-28T05:00:01.753Z,24.30
2022-07-28T05:02:28.904Z,24.40
2022-07-28T05:04:56.262Z,24.50
2022-07-28T05:07:23.365Z,24.60
2022-07-28T05:09:50.450Z,24.60
2022-07-28T05:12:17.445Z,24.60
2022-07-28T05:14:44.429Z,24.70
2022-07-28T05:17:11.674Z,24.80
2022-07-28T05:19:40.718Z,24.90
2022-07-28T05:22:07.784Z,24.90
2022-07-28T05:24:34.799Z,25.00
2022-07-28T05:27:01.943Z,25.10
2022-07-28T05:29:40.469Z,25.20
2022-07-28T05:32:17.140Z,25.40
2022-07-28T05:34:48.047Z,25.60
2022-07-28T05:37:15.068Z,25.90
2022-07-28T05:39:42.294Z,26.00
2022-07-28T05:42:09.288Z,26.20
2022-07-28T05:44:38.497Z,26.40
2022-07-28T05:47:06.547Z,26.60
2022-07-28T05:49:33.871Z,26.70
2022-07-28T05:52:01.208Z,26.80
2022-07-28T05:54:28.435Z,26.80
2022-07-28T05:56:55.445Z,26.80
2022-07-28T05:59:22.497Z,26.80
2022-07-28T06:01:49.592Z,26.80
2022-07-28T06:04:32.365Z,26.80
2022-07-28T06:06:59.626Z,26.80
2022-07-28T06:09:26.668Z,26.90
2022-07-28T06:11:53.645Z,26.90
2022-07-28T06:14:20.733Z,26.90
2022-07-28T06:16:51.269Z,26.90
2022-07-28T06:19:19.252Z,26.90
2022-07-28T06:21:47.677Z,26.90
2022-07-28T06:24:15.322Z,26.90
2022-07-28T06:26:44.883Z,27.00
2022-07-28T06:29:12.514Z,27.10
2022-07-28T06:31:40.189Z,27.20
2022-07-28T06:34:07.580Z,27.40
2022-07-28T06:36:34.579Z,27.60
2022-07-28T06:39:02.260Z,27.60
2022-07-28T06:41:29.445Z,27.70
2022-07-28T06:43:56.525Z,27.80
2022-07-28T06:46:23.694Z,27.90
2022-07-28T06:48:50.944Z,28.00
2022-07-28T06:51:20.046Z,28.10
2022-07-28T06:53:48.750Z,28.20
2022-07-28T06:56:17.032Z,28.10
2022-07-28T06:58:47.126Z,28.20
2022-07-28T07:01:15.632Z,28.30
2022-07-28T07:03:43.694Z,28.40
2022-07-28T07:06:11.103Z,28.60
2022-07-28T07:08:38.657Z,28.70
2022-07-28T07:11:06.009Z,28.80
2022-07-28T07:13:33.355Z,29.00
2022-07-28T07:16:00.836Z,29.00
2022-07-28T07:18:27.954Z,29.10
2022-07-28T07:20:57.639Z,29.20
2022-07-28T07:23:24.850Z,29.30
2022-07-28T07:25:51.922Z,29.40
2022-07-28T07:28:18.918Z,29.60
2022-07-28T07:30:45.984Z,29.70
2022-07-28T07:33:13.049Z,29.90
2022-07-28T07:35:40.118Z,30.10
2022-07-28T07:38:07.250Z,30.30
2022-07-28T07:40:34.302Z,30.50
2022-07-28T07:43:01.454Z,30.50
2022-07-28T07:45:28.467Z,30.50
2022-07-28T07:47:55.504Z,30.50
2022-07-28T07:50:22.624Z,30.70
2022-07-28T07:52:52.361Z,30.70
2022-07-28T07:55:19.487Z,30.80
2022-07-28T07:57:46.592Z,30.80
2022-07-28T08:00:28.920Z,30.80
2022-07-28T08:02:58.092Z,30.80
2022-07-28T08:05:35.488Z,30.90
2022-07-28T08:08:05.237Z,31.10
2022-07-28T08:10:33.918Z,31.30
2022-07-28T08:13:01.243Z,31.40
2022-07-28T08:15:28.374Z,31.50
2022-07-28T08:17:55.452Z,31.60
2022-07-28T08:20:22.839Z,31.70
2022-07-28T08:22:52.031Z,31.80
2022-07-28T08:25:20.082Z,31.90
2022-07-28T08:27:47.432Z,31.90
2022-07-28T08:30:15.331Z,32.00
2022-07-28T08:32:47.067Z,32.20
2022-07-28T08:35:40.395Z,32.30
2022-07-28T08:38:08.031Z,32.40
2022-07-28T08:40:38.233Z,32.60
2022-07-28T08:43:34.375Z,32.60
2022-07-28T08:46:04.267Z,32.70
2022-07-28T08:48:33.195Z,32.80
2022-07-28T08:51:04.373Z,32.90
2022-07-28T08:53:32.836Z,32.90
2022-07-28T08:56:05.578Z,33.10
2022-07-28T08:58:34.204Z,33.30
2022-07-28T09:01:01.838Z,33.60
2022-07-28T09:03:29.948Z,33.80
2022-07-28T09:05:57.980Z,34.10
2022-07-28T09:08:25.933Z,34.30
2022-07-28T09:10:53.303Z,34.20
2022-07-28T09:13:20.416Z,34.20
2022-07-28T09:15:48.608Z,34.30
2022-07-28T09:18:17.431Z,34.50
2022-07-28T09:20:45.277Z,34.50
2022-07-28T09:23:42.105Z,34.20
2022-07-28T09:26:11.749Z,33.90
2022-07-28T09:28:58.370Z,33.40
2022-07-28T09:31:27.581Z,33.00
2022-07-28T09:33:57.926Z,33.10
2022-07-28T09:36:25.049Z,33.20
2022-07-28T09:38:52.625Z,33.50
2022-07-28T09:41:21.960Z,33.70
2022-07-28T09:43:54.910Z,34.00
2022-07-28T09:46:24.831Z,34.20
2022-07-28T09:48:52.458Z,34.60
2022-07-28T09:51:26.301Z,34.80
2022-07-28T09:54:05.687Z,34.90
2022-07-28T09:56:32.887Z,35.10
2022-07-28T09:59:00.683Z,35.10
2022-07-28T10:01:35.812Z,35.00
2022-07-28T10:04:04.613Z,34.80
2022-07-28T10:06:33.632Z,34.80
2022-07-28T10:09:02.762Z,34.80
2022-07-28T10:11:30.715Z,34.90
2022-07-28T10:14:06.389Z,35.00
2022-07-28T10:16:42.685Z,35.20
2022-07-28T10:19:10.183Z,35.30
2022-07-28T10:21:44.395Z,35.10
2022-07-28T10:24:20.142Z,35.00
2022-07-28T10:26:48.250Z,34.90
2022-07-28T10:29:21.742Z,34.80
2022-07-28T10:31:54.974Z,34.80
2022-07-28T10:34:42.127Z,34.90
2022-07-28T10:37:13.170Z,34.90
2022-07-28T10:39:58.275Z,35.10
2022-07-28T10:42:25.712Z,35.10
2022-07-28T10:44:54.331Z,35.10
2022-07-28T10:47:23.576Z,35.30
2022-07-28T10:49:51.590Z,35.40
2022-07-28T10:52:45.641Z,35.40
2022-07-28T10:55:44.419Z,35.50
2022-07-28T10:58:24.999Z,35.70
2022-07-28T11:00:57.915Z,35.70
2022-07-28T11:03:43.842Z,35.60
2022-07-28T11:06:28.516Z,35.30
2022-07-28T11:08:57.650Z,35.10
2022-07-28T11:11:50.095Z,35.00
2022-07-28T11:14:24.458Z,34.90
2022-07-28T11:17:00.891Z,35.00
2022-07-28T11:20:07.119Z,34.90
2022-07-28T11:22:33.233Z,35.00
2022-07-28T11:25:19.209Z,35.20
2022-07-28T11:27:50.599Z,35.30
2022-07-28T11:30:32.943Z,35.30
2022-07-28T11:33:01.217Z,35.40
2022-07-28T11:35:30.267Z,35.60
2022-07-28T11:38:03.861Z,35.80
2022-07-28T11:40:34.610Z,35.70
2022-07-28T11:43:36.920Z,35.50
2022-07-28T11:46:10.124Z,35.20
2022-07-28T11:48:40.510Z,35.10
2022-07-28T11:51:07.627Z,34.90
2022-07-28T11:53:45.553Z,34.60
2022-07-28T11:56:29.228Z,34.40
2022-07-28T11:59:01.449Z,34.40
2022-07-28T12:01:32.043Z,34.50
2022-07-28T12:04:00.306Z,34.70
2022-07-28T12:06:35.879Z,34.90
2022-07-28T12:09:06.521Z,35.00
2022-07-28T12:11:35.707Z,35.10
2022-07-28T12:14:17.192Z,35.40
2022-07-28T12:16:49.654Z,35.50
2022-07-28T12:19:20.817Z,35.40
2022-07-28T12:21:51.794Z,35.40
2022-07-28T12:24:30.591Z,35.30
2022-07-28T12:27:00.394Z,35.30
2022-07-28T12:29:32.184Z,35.30
2022-07-28T12:32:04.980Z,35.00
2022-07-28T12:34:35.101Z,34.80
2022-07-28T12:37:04.613Z,34.70
2022-07-28T12:39:36.895Z,34.70
2022-07-28T12:42:05.723Z,34.80
2022-07-28T12:44:38.057Z,35.00
2022-07-28T12:47:07.864Z,35.10
2022-07-28T12:49:36.290Z,35.00
2022-07-28T12:52:24.424Z,34.90
2022-07-28T12:54:54.629Z,34.70
2022-07-28T12:57:48.743Z,34.50
2022-07-28T13:00:19.963Z,34.40
2022-07-28T13:02:48.945Z,34.40
2022-07-28T13:05:33.116Z,34.40
2022-07-28T13:08:05.695Z,34.40
2022-07-28T13:10:33.417Z,34.30
2022-07-28T13:13:06.935Z,34.30
2022-07-28T13:15:33.997Z,34.10
2022-07-28T13:18:01.353Z,33.90
2022-07-28T13:20:28.729Z,33.80
2022-07-28T13:22:57.486Z,33.60
2022-07-28T13:25:24.763Z,33.50
2022-07-28T13:27:55.455Z,33.30
2022-07-28T13:30:23.864Z,33.20
2022-07-28T13:32:51.192Z,33.10
2022-07-28T13:35:19.143Z,33.00
2022-07-28T13:37:48.904Z,32.90
2022-07-28T13:40:16.026Z,32.80
2022-07-28T13:42:53.414Z,32.70
2022-07-28T13:45:24.478Z,32.60
2022-07-28T13:47:52.391Z,32.60
2022-07-28T13:50:21.021Z,32.50
2022-07-28T13:52:48.593Z,32.50
2022-07-28T13:55:20.504Z,32.50
2022-07-28T13:57:50.515Z,32.40
2022-07-28T14:00:19.531Z,32.40
2022-07-28T14:02:50.190Z,32.30
2022-07-28T14:05:17.378Z,32.30
2022-07-28T14:07:48.443Z,32.20
2022-07-28T14:10:17.888Z,32.20
2022-07-28T14:12:46.211Z,32.20
2022-07-28T14:15:14.056Z,32.20
2022-07-28T14:17:43.414Z,32.30
2022-07-28T14:20:14.260Z,32.30
2022-07-28T14:22:42.646Z,32.30
2022-07-28T14:25:10.339Z,32.30
2022-07-28T14:27:37.634Z,32.40
2022-07-28T14:30:05.700Z,32.50
2022-07-28T14:32:33.115Z,32.70
2022-07-28T14:35:01.963Z,32.80
2022-07-28T14:37:36.208Z,32.90
2022-07-28T14:40:08.707Z,33.00
2022-07-28T14:42:35.895Z,33.10
2022-07-28T14:45:05.528Z,33.10
2022-07-28T14:47:44.720Z,33.10
2022-07-28T14:50:13.360Z,33.20
2022-07-28T14:52:40.674Z,33.20
2022-07-28T14:55:12.438Z,33.20
2022-07-28T14:57:51.812Z,33.20
2022-07-28T15:00:22.776Z,33.20
2022-07-28T15:02:51.694Z,33.10
2022-07-28T15:05:19.989Z,33.10
2022-07-28T15:07:49.470Z,33.10
2022-07-28T15:10:16.675Z,33.10
2022-07-28T15:12:44.660Z,33.20
2022-07-28T15:15:12.913Z,33.30
2022-07-28T15:17:40.103Z,33.40
2022-07-28T15:20:08.680Z,33.60
2022-07-28T15:22:35.732Z,33.60
2022-07-28T15:25:04.112Z,33.70
2022-07-28T15:27:33.659Z,33.90
2022-07-28T15:30:02.914Z,34.00
2022-07-28T15:32:31.302Z,34.10
2022-07-28T15:34:59.278Z,34.10
2022-07-28T15:37:28.088Z,34.10
2022-07-28T15:39:55.181Z,34.20
2022-07-28T15:42:22.324Z,34.20
2022-07-28T15:44:49.445Z,34.20
2022-07-28T15:47:16.698Z,34.20
2022-07-28T15:49:43.770Z,34.10
2022-07-28T15:52:11.128Z,34.10
2022-07-28T15:54:38.277Z,34.10
2022-07-28T15:57:05.340Z,34.10
2022-07-28T15:59:49.623Z,34.00
2022-07-28T16:02:18.669Z,34.00
2022-07-28T16:04:47.211Z,33.90
2022-07-28T16:07:23.427Z,33.90
2022-07-28T16:09:52.144Z,33.80
2022-07-28T16:12:19.402Z,33.80
2022-07-28T16:14:46.593Z,33.70
2022-07-28T16:17:13.647Z,33.60
2022-07-28T16:19:49.975Z,33.40
2022-07-28T16:22:18.947Z,33.30
2022-07-28T16:24:46.657Z,33.20
2022-07-28T16:27:14.680Z,33.10
2022-07-28T16:29:42.055Z,33.00
2022-07-28T16:32:09.232Z,33.00
2022-07-28T16:34:36.269Z,32.90
2022-07-28T16:37:05.058Z,32.90
2022-07-28T16:39:34.454Z,32.90
2022-07-28T16:42:02.877Z,32.90
2022-07-28T16:44:30.701Z,32.80
2022-07-28T16:46:58.269Z,32.70
2022-07-28T16:49:25.598Z,32.70
2022-07-28T16:51:52.939Z,32.70
2022-07-28T16:54:20.539Z,32.60
2022-07-28T16:56:48.272Z,32.50
2022-07-28T16:59:15.338Z,32.50
2022-07-28T17:01:46.297Z,32.40
2022-07-28T17:04:15.520Z,32.30
2022-07-28T17:06:42.929Z,32.30
2022-07-28T17:09:10.882Z,32.30
2022-07-28T17:11:38.138Z,32.20
2022-07-28T17:16:46.303Z,32.20
2022-07-28T17:19:13.310Z,32.10
2022-07-28T17:21:40.361Z,32.10
2022-07-28T17:24:08.435Z,32.00
2022-07-28T17:29:23.018Z,31.90
2022-07-28T17:31:50.251Z,31.80
2022-07-28T17:34:17.992Z,31.80
2022-07-28T17:36:45.746Z,31.70
2022-07-28T17:39:13.190Z,31.60
2022-07-28T17:41:40.323Z,31.60
2022-07-28T17:44:07.338Z,31.50
2022-07-28T17:46:35.142Z,31.50
2022-07-28T17:49:03.404Z,31.50
2022-07-28T17:51:30.850Z,31.40
2022-07-28T17:53:58.066Z,31.30
2022-07-28T17:56:25.395Z,31.20
2022-07-28T17:58:53.168Z,31.20
2022-07-28T18:01:20.271Z,31.00
2022-07-28T18:03:56.870Z,31.00
2022-07-28T18:06:32.511Z,30.80
2022-07-28T18:09:05.404Z,30.70
2022-07-28T18:11:57.022Z,30.60
2022-07-28T18:14:27.256Z,30.50
2022-07-28T18:16:54.709Z,30.40
2022-07-28T18:19:22.060Z,30.40
2022-07-28T18:21:49.569Z,30.30
2022-07-28T18:24:17.267Z,30.20
2022-07-28T18:26:44.574Z,30.10
2022-07-28T18:29:11.745Z,30.10
2022-07-28T18:31:45.462Z,30.00
2022-07-28T18:34:14.277Z,29.90
2022-07-28T18:36:41.590Z,29.80
2022-07-28T18:39:08.683Z,29.70
2022-07-28T18:41:46.711Z,29.60
2022-07-28T18:44:16.998Z,29.60
2022-07-28T18:46:44.728Z,29.50
2022-07-28T18:49:12.232Z,29.40
2022-07-28T18:51:39.396Z,29.30
2022-07-28T18:54:11.851Z,29.30
2022-07-28T18:56:38.960Z,29.20
2022-07-28T18:59:05.950Z,29.10
2022-07-28T19:01:33.124Z,29.10
2022-07-28T19:04:00.548Z,29.00
2022-07-28T19:06:29.191Z,28.90
2022-07-28T19:08:56.350Z,28.90
2022-07-28T19:11:23.330Z,28.80
2022-07-28T19:13:50.447Z,28.80
2022-07-28T19:16:18.962Z,28.70
2022-07-28T19:18:46.152Z,28.70
2022-07-28T19:21:13.704Z,28.60
2022-07-28T19:23:40.888Z,28.60
2022-07-28T19:26:08.026Z,28.50
2022-07-28T19:28:36.145Z,28.40
2022-07-28T19:31:10.159Z,28.40
2022-07-28T19:33:40.185Z,28.30
2022-07-28T19:36:11.794Z,28.30
2022-07-28T19:38:38.915Z,28.30
2022-07-28T19:41:05.974Z,28.20
2022-07-28T19:43:35.107Z,28.10
2022-07-28T19:46:02.805Z,28.10
2022-07-28T19:48:29.968Z,28.00
2022-07-28T19:50:57.126Z,27.90
2022-07-28T19:53:25.334Z,27.80
2022-07-28T19:55:59.528Z,27.80
2022-07-28T19:58:26.761Z,27.70
2022-07-28T20:00:56.277Z,27.70
2022-07-28T20:04:02.149Z,27.70
2022-07-28T20:06:11.764Z,27.60
2022-07-28T20:08:39.356Z,27.60
2022-07-28T20:11:06.979Z,27.60
2022-07-28T20:13:34.382Z,27.60
2022-07-28T20:16:01.432Z,27.60
2022-07-28T20:18:28.459Z,27.60
2022-07-28T20:20:55.586Z,27.60
2022-07-28T20:23:22.792Z,27.50
2022-07-28T20:25:49.825Z,27.40
2022-07-28T20:28:16.887Z,27.40
2022-07-28T20:30:44.029Z,27.30
2022-07-28T20:33:11.157Z,27.30
2022-07-28T20:35:38.146Z,27.20
2022-07-28T20:38:07.443Z,27.10
2022-07-28T20:40:37.399Z,27.10
2022-07-28T20:43:04.392Z,27.10
2022-07-28T20:45:31.905Z,27.10
2022-07-28T20:47:58.962Z,27.10
2022-07-28T20:50:26.142Z,27.00
2022-07-28T20:52:53.226Z,27.00
2022-07-28T20:55:20.805Z,26.90
2022-07-28T20:57:53.439Z,26.90
2022-07-28T21:00:21.024Z,26.90
2022-07-28T21:02:48.215Z,26.80
2022-07-28T21:05:26.716Z,26.80
2022-07-28T21:08:06.499Z,26.70
2022-07-28T21:10:36.367Z,26.70
2022-07-28T21:13:03.579Z,26.70
2022-07-28T21:15:31.006Z,26.60
2022-07-28T21:17:59.097Z,26.60
2022-07-28T21:20:26.237Z,26.50
2022-07-28T21:22:53.300Z,26.50
2022-07-28T21:25:20.607Z,26.50
2022-07-28T21:28:13.810Z,26.50
2022-07-28T21:30:40.819Z,26.50
2022-07-28T21:33:07.926Z,26.40
2022-07-28T21:35:34.969Z,26.40
2022-07-28T21:38:01.980Z,26.40
2022-07-28T21:40:29.148Z,26.30
2022-07-28T21:42:56.259Z,26.20
2022-07-28T21:45:23.469Z,26.20
2022-07-28T21:47:50.662Z,26.20
2022-07-28T21:50:17.764Z,26.10
2022-07-28T21:52:44.759Z,26.10
2022-07-28T21:55:12.212Z,26.00
2022-07-28T21:57:39.249Z,26.00
2022-07-28T22:00:09.671Z,25.90
2022-07-28T22:02:36.863Z,25.90
2022-07-28T22:05:05.163Z,25.80
2022-07-28T22:07:32.389Z,25.80
2022-07-28T22:09:59.551Z,25.80
2022-07-28T22:12:26.652Z,25.80
2022-07-28T22:14:53.729Z,25.70
2022-07-28T22:17:20.790Z,25.70
2022-07-28T22:19:47.847Z,25.60
2022-07-28T22:22:18.342Z,25.60
2022-07-28T22:24:46.173Z,25.60
2022-07-28T22:27:13.225Z,25.60
2022-07-28T22:29:40.359Z,25.50
2022-07-28T22:32:13.229Z,25.50
2022-07-28T22:34:40.339Z,25.50
2022-07-28T22:37:12.890Z,25.40
2022-07-28T22:39:40.599Z,25.40
2022-07-28T22:42:07.680Z,25.40
2022-07-28T22:44:34.665Z,25.40
2022-07-28T22:47:01.781Z,25.40
2022-07-28T22:49:28.895Z,25.30
2022-07-28T22:51:55.954Z,25.30
2022-07-28T22:54:22.960Z,25.30
2022-07-28T22:56:50.455Z,25.30
2022-07-28T22:59:17.820Z,25.30
2022-07-28T23:01:45.364Z,25.20
2022-07-28T23:04:13.502Z,25.20
2022-07-28T23:06:41.910Z,25.20
2022-07-28T23:09:09.054Z,25.10
2022-07-28T23:11:36.081Z,25.10
2022-07-28T23:14:03.161Z,25.10
2022-07-28T23:16:30.403Z,25.10
2022-07-28T23:18:57.660Z,25.00
2022-07-28T23:21:24.766Z,25.00
2022-07-28T23:23:51.846Z,25.00
2022-07-28T23:26:18.884Z,25.00
2022-07-28T23:28:45.961Z,24.90
2022-07-28T23:31:13.102Z,24.90
2022-07-28T23:33:56.275Z,24.80
2022-07-28T23:36:26.468Z,24.80
2022-07-28T23:38:59.082Z,24.70
2022-07-28T23:41:27.028Z,24.70
2022-07-28T23:43:54.339Z,24.60
2022-07-28T23:46:21.792Z,24.60
2022-07-28T23:48:50.004Z,24.60
2022-07-28T23:51:17.129Z,24.60
2022-07-28T23:53:44.346Z,24.60
2022-07-28T23:56:11.421Z,24.70
2022-07-28T23:58:38.481Z,24.60
